x

Southeast Of Ponce, Pr (42085) Weather Station

2:30am - Sun 1st Feb 2015 All times are AST. -4 hours from GMT.

  • Wind
    9mph, 11mph gusts
  • Air Temp 78°f
  • Sea Pressure 1015.7mb
  • Southeast Of Ponce, Pr
  • Southeast Of Ponce, Pr

More Historic Weather Station data

Upgrade to MSW Pro to gain access to the past 30 days of data for over 8000 Wavebouys and Weather Stations around the globe.

Join Pro

Comparision Forecast

View Surf forecast
   
Sun 02/01 2:30am  -   -  9 11 mph 1015.7mb - 78f
2:20am  -   -  9 11 mph 1015.8mb - 78f
2:10am  -   -  9 11 mph 1015.8mb - 78f
2:00am 2.5ft 9s 9 11 mph 1015.9mb 81f 78f
1:50am  -   -  9 11 mph 1016mb - 78f
1:40am  -   -  9 11 mph 1016mb - 78f
1:30am  -   -  7 11 mph 1016.1mb - 78f
1:20am  -   -  9 11 mph 1016.2mb - 78f
1:10am  -   -  9 11 mph 1016.3mb - 78f
1:00am 2ft 10s 9 11 mph 1016.4mb 81f 78f
12:50am  -   -  9 11 mph 1016.4mb - 78f
12:40am  -   -  11 13 mph 1016.4mb - 78f
12:30am  -   -  9 13 mph 1016.5mb - 78f
12:20am  -   -  9 11 mph 1016.5mb - 78f
12:10am  -   -  11
mph
1016.5mb - 78f
12:00am 2ft 9s 9 11 mph 1016.6mb 81f 78f
Sat 01/31 11:50pm  -   -  9 11 mph 1016.6mb - 78f
11:40pm  -   -  9 11 mph 1016.7mb - 78f
11:30pm  -   -  9 13 mph 1016.7mb - 78f
11:20pm  -   -  9 11 mph 1016.7mb - 78f
11:10pm  -   -  9 11 mph 1016.7mb - 78f
11:00pm 2ft 9s 9 11 mph 1016.7mb 81f 78f
10:50pm  -   -  9 11 mph 1016.8mb - 78f
10:40pm  -   -  9 11 mph 1016.9mb - 78f
10:30pm  -   -  9 11 mph 1016.9mb - 78f
10:20pm  -   -  9 11 mph 1016.9mb - 78f
10:10pm  -   -  9 11 mph 1016.7mb - 78f
10:00pm 2ft 4s 9 11 mph 1016.7mb 81f 78f
9:50pm  -   -  7 11 mph 1016.7mb - 78f
9:40pm  -   -  7 9 mph 1016.7mb - 78f
9:30pm  -   -  7 9 mph 1016.6mb - 78f
9:20pm  -   -  7 9 mph 1016.5mb - 78f
9:10pm  -   -  7 9 mph 1016.4mb - 78f
9:00pm 2.5ft 4s 7 9 mph 1016.3mb 81f 78f
8:50pm  -   -  7 9 mph 1016.3mb - 78f
8:40pm  -   -  7 9 mph 1016.3mb - 78f
8:30pm  -   -  7 9 mph 1016.1mb - 78f
8:20pm  -   -  7 9 mph 1015.9mb - 78f
8:10pm  -   -  7 9 mph 1015.8mb - 78f
8:00pm  -   -  7 9 mph 1015.6mb 81f 78f
7:00pm 2.5ft 4s 16 18 mph 1014.6mb 81f 80f
6:50pm  -   -  16 18 mph 1014.6mb - 80f
6:40pm  -   -  13 18 mph 1014.7mb - 80f
6:30pm  -   -  16 20 mph 1014.5mb - 80f
6:20pm  -   -  16 18 mph 1014.5mb - 80f
6:10pm  -   -  16 18 mph 1014.4mb - 80f
6:00pm 2.5ft 9s 13 18 mph 1014.4mb 81f 80f
5:50pm  -   -  13 18 mph 1014.4mb - 80f
5:40pm  -   -  16 18 mph 1014.3mb - 80f
5:30pm  -   -  16 18 mph 1014.3mb - 80f
5:20pm  -   -  16 18 mph 1014.2mb - 80f
5:10pm  -   -  16 20 mph 1014mb - 80f
5:00pm 2.5ft 9s 13 18 mph 1013.9mb 81f 80f
4:50pm  -   -  13 18 mph 1013.9mb - 80f
4:40pm  -   -  13 18 mph 1013.9mb - 80f
4:30pm  -   -  13 16 mph 1013.9mb - 80f
4:20pm  -   -  13 16 mph 1013.8mb - 80f
4:00pm  -   -  13 16 mph 1013.7mb 81f 80f
3:30pm  -   -  11 16 mph 1013.8mb - 80f
3:20pm  -   -  11 16 mph 1013.8mb - 80f
3:10pm  -   -  11 16 mph 1013.9mb - 80f
3:00pm 2.5ft 9s 11 13 mph 1013.9mb 81f 80f
2:50pm  -   -  11 13 mph 1013.9mb - 80f
2:40pm  -   -  11 16 mph 1013.9mb - 80f
2:30pm  -   -  11 16 mph 1014mb - 80f
2:20pm  -   -  13 16 mph 1014.2mb - 80f
2:10pm  -   -  11 13 mph 1014.3mb - 80f
2:00pm 2.5ft 5s 11 13 mph 1014.5mb 81f 80f
1:50pm  -   -  11 13 mph 1014.7mb - 80f
1:40pm  -   -  11 16 mph 1014.8mb - 80f
1:30pm  -   -  13 16 mph 1014.9mb - 80f
1:20pm  -   -  11 13 mph 1015mb - 79f
1:10pm  -   -  11 13 mph 1015.2mb - 79f
1:00pm 2.5ft 5s 11 13 mph 1015.4mb 81f 79f
12:30pm  -   -  9 13 mph 1015.6mb - 79f
12:20pm  -   -  9 11 mph 1015.7mb - 79f
12:10pm  -   -  11 13 mph 1015.8mb - 79f
12:00pm 2.5ft 9s 11 13 mph 1015.9mb 81f 79f
11:50am  -   -  11 13 mph 1015.9mb - 79f
11:40am  -   -  11 13 mph 1016mb - 79f
11:30am  -   -  11 13 mph 1016.1mb - 79f
11:20am  -   -  11 13 mph 1016.1mb - 79f
11:10am  -   -  11 13 mph 1016.2mb - 79f
11:00am 2ft 10s 11 13 mph 1016.3mb 81f 79f
10:50am  -   -  9 11 mph 1016.3mb - 79f
10:40am  -   -  11 16 mph 1016.4mb - 79f
10:30am  -   -  11 13 mph 1016.4mb - 79f
10:20am  -   -  11 13 mph 1016.4mb - 79f
10:10am  -   -  11 13 mph 1016.5mb - 79f
10:00am 2ft 5s 9 11 mph 1016.5mb 81f 79f
9:50am  -   -  7 11 mph 1016.4mb - 78f
9:40am  -   -  7 9 mph 1016.3mb - 78f
9:30am  -   -  7 11 mph 1016.2mb - 78f
9:20am  -   -  7 9 mph 1016.1mb - 78f
9:10am  -   -  7 9 mph 1016mb - 78f
9:00am 2ft 5s 7 9 mph 1015.8mb 81f 78f
8:50am  -   -  7 9 mph 1015.7mb - 78f
8:40am  -   -  7 9 mph 1015.6mb - 78f
8:30am  -   -  7 9 mph 1015.5mb - 78f
8:20am  -   -  7 9 mph 1015.3mb - 78f
8:10am  -   -  7 9 mph 1015.2mb - 78f
8:00am 2.5ft 9s 7 9 mph 1015.1mb 81f 78f
7:50am  -   -  7 9 mph 1015mb - 78f
7:40am  -   -  7 9 mph 1014.9mb - 78f
7:30am  -   -  7 9 mph 1014.8mb - 78f
7:20am  -   -  9 11 mph 1014.8mb - 77f
7:10am  -   -  9 11 mph 1014.7mb - 77f
7:00am 2.5ft 8s 9
mph
1014.6mb 81f 77f
6:50am  -   -  7 9 mph 1014.6mb - 77f
6:40am  -   -  7 9 mph 1014.5mb - 76f
6:30am  -   -  7 9 mph 1014.4mb - 77f
6:20am  -   -  7 9 mph 1014.3mb - 76f
6:10am  -   -  9
mph
1014.2mb - 76f
6:00am 2.5ft 8s 7 9 mph 1014.1mb 81f 76f
5:50am  -   -  9 11 mph 1014mb - 77f
5:40am  -   -  9
mph
1013.9mb - 77f
5:30am  -   -  7 9 mph 1013.8mb - 77f
5:20am  -   -  7 9 mph 1013.8mb - 77f
5:10am  -   -  7 9 mph 1013.6mb - 76f
5:00am 2.5ft 9s 7 9 mph 1013.6mb 81f 76f
4:50am  -   -  7 9 mph 1013.6mb - 76f
4:40am  -   -  9 11 mph 1013.5mb - 76f
4:30am  -   -  7 9 mph 1013.4mb - 76f
4:20am  -   -  7 9 mph 1013.4mb - 76f
4:10am  -   -  7 9 mph 1013.4mb - 76f
4:00am 2.5ft 6s 9
mph
1013.4mb 81f 75f
3:50am  -   -  7 9 mph 1013.4mb - 76f
3:40am  -   -  9 11 mph 1013.4mb - 76f
3:30am  -   -  7 9 mph 1013.5mb - 77f
3:20am  -   -  7 9 mph 1013.6mb - 77f
3:10am  -   -  7 9 mph 1013.6mb - 77f
3:00am 2.5ft 6s 7 9 mph 1013.6mb 81f 77f
2:50am  -   -  7 9 mph 1013.7mb - 77f
2:40am  -   -  7 9 mph 1013.7mb - 77f
2:30am  -   -  7 9 mph 1013.9mb - 77f
2:20am  -   -  7 9 mph 1014mb - 77f
2:10am  -   -  7 9 mph 1014.1mb - 77f
2:00am 2.5ft 9s 9 11 mph 1014.2mb 81f 77f
1:50am  -   -  9 11 mph 1014.3mb - 77f
1:40am  -   -  9 11 mph 1014.3mb - 77f
1:30am  -   -  9 11 mph 1014.3mb - 77f
1:20am  -   -  9 11 mph 1014.3mb - 78f
1:00am 2.5ft 9s 9 11 mph 1014.4mb 81f 78f
12:00am 2.5ft 8s 7 9 mph 1014.8mb 81f 78f
Fri 01/30 11:50pm  -   -  9
mph
1014.9mb - 77f
11:40pm  -   -  9
mph
1014.9mb - 78f
11:30pm  -   -  9
mph
1014.9mb - 78f
11:20pm  -   -  9 11 mph 1015mb - 78f
11:10pm  -   -  9 11 mph 1015mb - 78f
11:00pm 2.5ft 6s 9
mph
1015mb 81f 78f
10:50pm  -   -  9 11 mph 1015mb - 78f
10:40pm  -   -  7 9 mph 1015.1mb - 78f
10:30pm  -   -  7 9 mph 1015.1mb - 78f
10:20pm  -   -  7 9 mph 1015.1mb - 77f
10:10pm  -   -  7
mph
1015.1mb - 77f
10:00pm 2.5ft 5s 7 9 mph 1015.1mb 81f 77f
9:50pm  -   -  9
mph
1015.1mb - 77f
9:40pm  -   -  7 9 mph 1015.1mb - 77f
9:30pm  -   -  9
mph
1015.1mb - 77f
9:20pm  -   -  9 11 mph 1015.2mb - 77f
9:10pm  -   -  9 11 mph 1015.1mb - 77f
9:00pm 2.5ft 6s 9
mph
1015.1mb 81f 77f
8:50pm  -   -  7 9 mph 1015.1mb - 78f
8:40pm  -   -  7 9 mph 1015mb - 78f
8:30pm  -   -  7 9 mph 1014.9mb - 78f
8:20pm  -   -  7 9 mph 1014.8mb - 78f
8:00pm 2.5ft 5s 7 9 mph 1014.6mb 81f 78f
7:30pm  -   -  7 11 mph 1014.3mb - 78f
7:20pm  -   -  9 18 mph 1014.2mb - 79f
7:10pm  -   -  13 16 mph 1014mb - 80f
7:00pm  -   -  13 16 mph 1013.9mb 81f 80f
6:50pm  -   -  13 16 mph 1013.9mb - 80f
6:40pm  -   -  13 16 mph 1013.9mb - 80f
6:30pm  -   -  13 18 mph 1013.8mb - 80f
6:20pm  -   -  13 16 mph 1013.9mb - 80f
6:10pm  -   -  13
mph
1013.7mb - 80f
6:00pm 2.5ft 7s 13 16 mph 1013.6mb 81f 80f
5:50pm  -   -  13 18 mph 1013.6mb - 80f
5:40pm  -   -  13 16 mph 1013.6mb - 80f
5:30pm  -   -  16 18 mph 1013.6mb - 80f
5:20pm  -   -  13 16 mph 1013.6mb - 80f
5:10pm  -   -  13 16 mph 1013.5mb - 80f
5:00pm 3ft 6s 13 16 mph 1013.4mb 81f 80f
4:50pm  -   -  13 16 mph 1013.4mb - 80f
4:40pm  -   -  13 18 mph 1013.3mb - 80f
4:30pm  -   -  16 18 mph 1013.3mb - 80f
4:20pm  -   -  16 18 mph 1013.2mb - 80f
4:10pm  -   -  16 20 mph 1013.1mb - 80f
4:00pm 3.5ft 7s 18 20 mph 1013.1mb 81f 80f
3:50pm  -   -  16 18 mph 1013.1mb - 80f
3:40pm  -   -  16 20 mph 1013.1mb - 80f
3:30pm  -   -  16 20 mph 1013mb - 80f
3:20pm  -   -  16 20 mph 1013.1mb - 80f
3:10pm  -   -  16 20 mph 1013.1mb - 80f
3:00pm  -   -  18 20 mph 1013.1mb 81f 80f
2:30pm  -   -  18 20 mph 1013.3mb - 80f
2:20pm  -   -  18 20 mph 1013.4mb - 80f
2:10pm  -   -  18 20 mph 1013.5mb - 80f
2:00pm 3.5ft 8s 16 20 mph 1013.6mb 81f 80f
1:50pm  -   -  18 20 mph 1013.7mb - 80f
1:40pm  -   -  16 18 mph 1013.7mb - 80f
1:30pm  -   -  18 20 mph 1013.8mb - 80f
1:20pm  -   -  18 20 mph 1014mb - 80f
1:10pm  -   -  16 20 mph 1014.1mb - 80f
1:00pm 3ft 8s 16 18 mph 1014.2mb 81f 79f
12:50pm  -   -  16 18 mph 1014.2mb - 79f
12:40pm  -   -  13 18 mph 1014.4mb - 79f
12:30pm  -   -  16 18 mph 1014.5mb - 78f
12:20pm  -   -  16 18 mph 1014.7mb - 78f
12:10pm  -   -  16 18 mph 1014.9mb - 79f
12:00pm 2.5ft 8s 16 18 mph 1015.1mb 81f 79f
11:50am  -   -  13 16 mph 1015.2mb - 80f
11:40am  -   -  13 16 mph 1015.4mb - 79f
11:30am  -   -  13 16 mph 1015.5mb - 79f
11:20am  -   -  11 13 mph 1015.5mb - 79f
11:10am  -   -  9 11 mph 1015.8mb - 79f
11:00am 2.5ft 8s 9 11 mph 1015.9mb 81f 79f
10:50am  -   -  7 11 mph 1016mb - 79f
10:40am  -   -  9 11 mph 1016.1mb - 79f
10:30am  -   -  7 11 mph 1016.1mb - 79f
10:20am  -   -  9 11 mph 1016.1mb - 79f
10:10am  -   -  9 11 mph 1016.1mb - 79f
10:00am 2.5ft 6s 9 11 mph 1016.1mb 81f 79f
9:50am  -   -  7 9 mph 1016.1mb - 79f
9:40am  -   -  7
mph
1016.1mb - 79f
9:30am  -   -  7
mph
1016mb - 79f
9:20am  -   -  7
mph
1015.9mb - 79f
9:10am  -   -  7 9 mph 1015.8mb - 79f
9:00am 2.5ft 7s 7 9 mph 1015.7mb 81f 79f
8:50am  -   -  7 9 mph 1015.5mb - 79f
8:40am  -   -  7 9 mph 1015.4mb - 78f
8:30am  -   -  9 11 mph 1015.2mb - 78f
8:20am  -   -  9 11 mph 1015.2mb - 78f
8:10am  -   -  9 11 mph 1015.1mb - 78f
8:00am 2.5ft 7s 9 11 mph 1015.1mb 81f 78f
7:50am  -   -  9 11 mph 1015mb - 78f
7:40am  -   -  11 13 mph 1014.9mb - 78f
7:30am  -   -  11 13 mph 1014.9mb - 78f
7:20am  -   -  9 11 mph 1014.8mb - 78f
7:10am  -   -  9 11 mph 1014.7mb - 77f
7:00am 2.5ft 7s 11
mph
1014.5mb 81f 77f
6:50am  -   -  9 11 mph 1014.3mb - 77f
6:40am  -   -  9 11 mph 1014.2mb - 77f
6:30am  -   -  9 11 mph 1014.2mb - 77f
6:20am  -   -  9
mph
1014.2mb - 77f
6:10am  -   -  9 11 mph 1014.2mb - 77f
6:00am 2.5ft 6s 9 11 mph 1014.2mb 81f 77f
5:50am  -   -  9 11 mph 1014.1mb - 77f
5:40am  -   -  9
mph
1014mb - 77f
5:30am  -   -  7 9 mph 1014mb - 77f
5:20am  -   -  4 7 mph 1014mb - 76f
5:10am  -   -  7
mph
1013.9mb - 76f
5:00am 2.5ft 7s 7 9 mph 1013.9mb 81f 76f
4:50am  -   -  7 9 mph 1013.8mb - 76f
4:40am  -   -  7 9 mph 1013.7mb - 76f
4:30am  -   -  9
mph
1013.7mb - 76f
4:20am  -   -  7 9 mph 1013.7mb - 76f
4:10am  -   -  7 9 mph 1013.7mb - 76f
4:00am 2.5ft 7s 7 9 mph 1013.7mb 81f 76f
3:50am  -   -  7 9 mph 1013.7mb - 77f
3:40am  -   -  7 9 mph 1013.7mb - 77f
3:30am  -   -  9 11 mph 1013.8mb - 77f
3:20am  -   -  7 9 mph 1013.9mb - 77f
3:10am  -   -  7 11 mph 1014mb - 76f
3:00am 2.5ft 6s 9 11 mph 1014mb 81f 77f
2:50am  -   -  9 11 mph 1014mb - 77f
2:40am  -   -  9 11 mph 1014.1mb - 77f
2:30am  -   -  9 11 mph 1014.2mb - 77f
2:20am  -   -  9 11 mph 1014.2mb - 77f
2:10am  -   -  9 11 mph 1014.2mb - 77f
2:00am 2.5ft 6s 9 11 mph 1014.2mb 81f 78f
1:50am  -   -  9 11 mph 1014.2mb - 78f
1:40am  -   -  9 11 mph 1014.3mb - 78f
1:30am  -   -  7 9 mph 1014.4mb - 78f
1:20am  -   -  7 9 mph 1014.5mb - 78f
1:00am 2.5ft 6s 9 11 mph 1014.5mb 81f 78f
12:40am  -   -  9 11 mph 1014.7mb - 79f
12:30am  -   -  9 11 mph 1014.8mb - 78f
12:20am  -   -  9 11 mph 1014.8mb - 78f
12:10am  -   -  9 11 mph 1014.9mb - 79f
12:00am 2.5ft 6s 9 11 mph 1015mb 81f 78f
Thu 01/29 11:50pm  -   -  9 11 mph 1015.1mb - 78f
11:40pm  -   -  9
mph
1015.1mb - 78f
11:30pm  -   -  9 11 mph 1015.2mb - 78f
11:20pm  -   -  9 11 mph 1015.2mb - 78f
11:10pm  -   -  9 11 mph 1015.2mb - 78f
11:00pm 2.5ft 7s 9 11 mph 1015.2mb 81f 78f
10:50pm  -   -  9 11 mph 1015.2mb - 78f
10:40pm  -   -  9 11 mph 1015.3mb - 78f
10:30pm  -   -  9 11 mph 1015.3mb - 78f
10:20pm  -   -  9 11 mph 1015.3mb - 78f
10:10pm  -   -  9 11 mph 1015.3mb - 78f
10:00pm 2.5ft 6s 9
mph
1015.2mb 81f 78f
9:50pm  -   -  9 11 mph 1015.2mb - 78f
9:40pm  -   -  9
mph
1015.1mb - 78f
9:30pm  -   -  9 11 mph 1015.2mb - 78f
9:20pm  -   -  9 11 mph 1015.1mb - 78f
9:10pm  -   -  9 11 mph 1015.1mb - 79f
9:00pm 2.5ft 6s 9 11 mph 1015mb 81f 79f
8:50pm  -   -  9
mph
1015mb - 78f
8:40pm  -   -  9 11 mph 1015mb - 78f
8:30pm  -   -  9
mph
1015mb - 79f
8:20pm  -   -  9 11 mph 1014.9mb - 79f
8:10pm  -   -  9 11 mph 1014.8mb - 79f
8:00pm 2.5ft 6s 9 11 mph 1014.8mb 81f 79f
7:50pm  -   -  9 11 mph 1014.6mb - 79f
7:40pm  -   -  7 9 mph 1014.6mb - 79f
7:30pm  -   -  7 9 mph 1014.6mb - 79f
7:20pm  -   -  7 9 mph 1014.6mb - 79f
7:10pm  -   -  7 9 mph 1014.6mb - 79f
7:00pm 3ft 5s 7 9 mph 1014.6mb 81f 79f
6:50pm  -   -  7 9 mph 1014.5mb - 79f
6:40pm  -   -  7 9 mph 1014.5mb - 79f
6:30pm  -   -  7 9 mph 1014.4mb - 79f
6:20pm  -   -  7 9 mph 1014.3mb - 79f
6:10pm  -   -  7 9 mph 1014.3mb - 79f
6:00pm 2.5ft 6s 7 9 mph 1014.4mb 81f 79f
5:50pm  -   -  9
mph
1014.4mb - 79f
5:40pm  -   -  9 11 mph 1014.3mb - 80f
5:30pm  -   -  9 11 mph 1014.3mb - 80f
5:20pm  -   -  7 9 mph 1014.2mb - 80f
5:10pm  -   -  9
mph
1014.1mb - 80f
5:00pm 2.5ft 7s 9
mph
1014mb 81f 80f
4:50pm  -   -  9 13 mph 1014.1mb - 79f
4:40pm  -   -  13
mph
1014.2mb - 79f
4:30pm  -   -  13 18 mph 1014.1mb - 79f
4:20pm  -   -  16 18 mph 1014.1mb - 79f
4:10pm  -   -  16 20 mph 1014mb - 80f
4:00pm 3ft 7s 16 22 mph 1014.1mb 81f 79f
3:50pm  -   -  16 20 mph 1014.1mb - 79f
3:40pm  -   -  16 18 mph 1014.2mb - 78f
3:30pm  -   -  16 20 mph 1014.2mb - 78f
3:20pm  -   -  18 20 mph 1014.1mb - 78f
3:10pm  -   -  16 20 mph 1014.3mb - 77f
3:00pm 4ft 5s 13 18 mph 1014.5mb 81f 77f
2:50pm  -   -  16 25 mph 1014.6mb - 77f
2:30pm  -   -  22 29 mph 1014.3mb - 76f
2:20pm  -   -  22 27 mph 1014.5mb - 76f
2:10pm  -   -  22 29 mph 1014.6mb - 76f
2:00pm 3.5ft 6s 22 27 mph 1014.8mb 81f 76f
1:50pm  -   -  22 27 mph 1014.8mb - 77f
1:40pm  -   -  18 22 mph 1014.9mb - 78f
1:30pm  -   -  18 22 mph 1014.8mb - 79f
1:20pm  -   -  13 18 mph 1014.8mb - 78f
1:10pm  -   -  16 18 mph 1014.9mb - 79f
1:00pm  -   -  16 20 mph 1015.1mb 81f 78f
12:50pm  -   -  18 22 mph 1015.4mb - 78f
12:40pm  -   -  18 22 mph 1015.5mb - 78f
12:30pm  -   -  20 25 mph 1015.7mb - 78f
12:20pm  -   -  18 20 mph 1015.8mb - 80f
12:10pm  -   -  13 18 mph 1015.9mb - 79f
12:00pm 3ft 6s 13 18 mph 1015.9mb 81f 80f
11:50am  -   -  16 18 mph 1016.1mb - 80f
11:40am  -   -  16 18 mph 1016.3mb - 79f
11:30am  -   -  18 20 mph 1016.3mb - 79f
11:20am  -   -  18 20 mph 1016.4mb - 79f
11:10am  -   -  18 20 mph 1016.4mb - 80f
11:00am 2.5ft 6s 16 18 mph 1016.4mb 81f 80f
10:50am  -   -  16 18 mph 1016.5mb - 80f
10:40am  -   -  13 16 mph 1016.6mb - 79f
10:30am  -   -  13 16 mph 1016.6mb - 79f
10:20am  -   -  13 16 mph 1016.6mb - 78f
10:10am  -   -  11 16 mph 1016.7mb - 78f
10:00am 2.5ft 7s 11 16 mph 1016.6mb 81f 79f
9:50am  -   -  11 13 mph 1016.6mb - 79f
9:40am  -   -  9 13 mph 1016.6mb - 78f
9:30am  -   -  7 9 mph 1016.4mb - 78f
9:20am  -   -  7 9 mph 1016.4mb - 78f
9:10am  -   -  7 9 mph 1016.3mb - 78f
9:00am 2.5ft 6s 9
mph
1016.2mb 81f 77f
8:50am  -   -  7 9 mph 1016mb - 78f
8:40am  -   -  9 11 mph 1015.8mb - 78f
8:30am  -   -  9
mph
1015.7mb - 78f
8:20am  -   -  7 9 mph 1015.5mb - 78f
8:10am  -   -  9 11 mph 1015.3mb - 78f
8:00am 2.5ft 7s 9
mph
1015.2mb 81f 78f
7:50am  -   -  9
mph
1015.2mb - 77f
7:40am  -   -  9 11 mph 1015.1mb - 77f
7:30am  -   -  9 11 mph 1015.1mb - 77f
7:20am  -   -  9 11 mph 1015mb - 77f
7:10am  -   -  9 11 mph 1015mb - 77f
7:00am 2.5ft 6s 9 11 mph 1014.8mb 81f 76f
6:50am  -   -  9 11 mph 1014.7mb - 76f
6:40am  -   -  9 11 mph 1014.6mb - 76f
6:30am  -   -  9 11 mph 1014.5mb - 76f
6:20am  -   -  9 11 mph 1014.3mb - 76f
6:10am  -   -  9 11 mph 1014.2mb - 76f
6:00am 2.5ft 6s 9 11 mph 1014.1mb 81f 76f
5:50am  -   -  9 11 mph 1013.9mb - 76f
5:40am  -   -  9 11 mph 1013.8mb - 76f
5:30am  -   -  9 11 mph 1013.7mb - 76f
5:20am  -   -  9 11 mph 1013.6mb - 77f
5:10am  -   -  9 11 mph 1013.6mb - 78f
5:00am 2.5ft 6s 9
mph
1013.5mb 81f 77f
4:50am  -   -  9 11 mph 1013.4mb - 77f
4:40am  -   -  7 9 mph 1013.4mb - 77f
4:30am  -   -  9
mph
1013.3mb - 77f
4:20am  -   -  9 11 mph 1013.3mb - 77f
4:10am  -   -  9 11 mph 1013.3mb - 77f
4:00am 3ft 7s 9 11 mph 1013.3mb 81f 77f
3:50am  -   -  9 11 mph 1013.4mb - 78f
3:40am  -   -  9 11 mph 1013.4mb - 78f
3:30am  -   -  9 11 mph 1013.4mb - 78f
3:20am  -   -  9 11 mph 1013.5mb - 78f
3:10am  -   -  9 11 mph 1013.6mb - 78f
3:00am 3.5ft 7s 9 11 mph 1013.6mb 81f 78f
2:50am  -   -  9 11 mph 1013.7mb - 78f
2:40am  -   -  9 11 mph 1013.8mb - 78f
2:30am  -   -  9 11 mph 1013.9mb - 78f
2:20am  -   -  11 13 mph 1014mb - 78f
2:10am  -   -  9 11 mph 1014.2mb - 79f
2:00am 3.5ft 6s 9 11 mph 1014.3mb 81f 78f
1:50am  -   -  9 11 mph 1014.5mb - 78f
1:40am  -   -  9 11 mph 1014.6mb - 78f
1:30am  -   -  9 11 mph 1014.6mb - 78f
1:20am  -   -  9 11 mph 1014.7mb - 77f
1:10am  -   -  9
mph
1014.8mb - 77f
1:00am 3ft 7s 9
mph
1014.8mb 81f 77f
12:50am  -   -  7 9 mph 1014.9mb - 78f
12:40am  -   -  7 9 mph 1014.9mb - 77f
12:30am  -   -  7 9 mph 1014.9mb - 78f
12:20am  -   -  7 9 mph 1015mb - 78f
12:10am  -   -  7 11 mph 1015mb - 78f
12:00am 3.5ft 7s 9 11 mph 1014.9mb 81f 77f
Wed 01/28 11:50pm  -   -  9 11 mph 1014.9mb - 77f
11:40pm  -   -  11
mph
1015.1mb - 78f
11:30pm  -   -  9
mph
1015.1mb - 79f
11:20pm  -   -  7 9 mph 1015.1mb - 79f
11:10pm  -   -  7 9 mph 1015.1mb - 79f
11:00pm 3.5ft 7s 7 9 mph 1015.2mb 81f 79f
10:50pm  -   -  7 9 mph 1015.3mb - 79f
10:40pm  -   -  7 9 mph 1015.4mb - 78f
10:30pm  -   -  9
mph
1015.3mb - 78f
10:20pm  -   -  9
mph
1015.3mb - 79f
10:10pm  -   -  9
mph
1015.4mb - 79f
10:00pm 3.5ft 6s 9 11 mph 1015.3mb 81f 79f
9:50pm  -   -  9 11 mph 1015.2mb - 80f
9:40pm  -   -  9
mph
1015.1mb - 80f
9:30pm  -   -  7 9 mph 1014.9mb - 80f
9:20pm  -   -  9 11 mph 1014.8mb - 80f
9:10pm  -   -  9 11 mph 1014.7mb - 80f
9:00pm 3ft 7s 9 11 mph 1014.7mb 81f 80f
8:50pm  -   -  9 11 mph 1014.6mb - 80f
8:40pm  -   -  9 11 mph 1014.5mb - 80f
8:30pm  -   -  9 11 mph 1014.4mb - 80f
8:20pm  -   -  9 11 mph 1014.3mb - 80f
8:10pm  -   -  9 11 mph 1014.2mb - 80f
8:00pm 3ft 6s 9 11 mph 1014.2mb 81f 80f
7:50pm  -   -  9 11 mph 1014.1mb - 80f
7:40pm  -   -  9 11 mph 1014mb - 80f
7:30pm  -   -  9 11 mph 1013.9mb - 80f
7:20pm  -   -  9 11 mph 1013.8mb - 80f
7:10pm  -   -  9 11 mph 1013.7mb - 80f
7:00pm 3ft 6s 9 11 mph 1013.7mb 81f 80f
6:50pm  -   -  9 11 mph 1013.6mb - 80f
6:40pm  -   -  9 11 mph 1013.5mb - 80f
6:30pm  -   -  9 11 mph 1013.5mb - 80f
6:20pm  -   -  9 11 mph 1013.5mb - 80f
6:10pm  -   -  9 11 mph 1013.6mb - 80f
6:00pm 3.5ft 7s 9 11 mph 1013.6mb 81f 80f
5:50pm  -   -  9 11 mph 1013.6mb - 80f
5:40pm  -   -  9 11 mph 1013.5mb - 80f
5:30pm  -   -  9 11 mph 1013.5mb - 80f
5:20pm  -   -  9
mph
1013.5mb - 80f
5:10pm  -   -  9 11 mph 1013.4mb - 81f
5:00pm 3.5ft 7s 9 11 mph 1013.4mb 81f 81f
4:50pm  -   -  9
mph
1013.4mb - 81f
4:40pm  -   -  9 11 mph 1013.4mb - 81f
4:30pm  -   -  9 11 mph 1013.4mb - 81f
4:20pm  -   -  9 11 mph 1013.4mb - 81f
4:10pm  -   -  9 11 mph 1013.4mb - 81f
4:00pm 3.5ft 7s 9 11 mph 1013.4mb 81f 81f
3:50pm  -   -  9 11 mph 1013.3mb - 81f
3:40pm  -   -  9 11 mph 1013.3mb - 81f
3:30pm  -   -  9 11 mph 1013.4mb - 80f
3:20pm  -   -  9 11 mph 1013.5mb - 80f
3:10pm  -   -  9 11 mph 1013.6mb - 80f
3:00pm 3.5ft 6s 9 11 mph 1013.6mb 81f 80f
2:50pm  -   -  9 11 mph 1013.7mb - 80f
2:40pm  -   -  9 11 mph 1013.9mb - 80f
2:30pm  -   -  9 11 mph 1014mb - 80f
2:20pm  -   -  9 11 mph 1014mb - 80f
2:10pm  -   -  9 11 mph 1014.2mb - 81f
2:00pm 3.5ft 7s 11 13 mph 1014.3mb 81f 81f
1:50pm  -   -  11 13 mph 1014.4mb - 81f
1:40pm  -   -  9 13 mph 1014.5mb - 81f
1:30pm  -   -  11 13 mph 1014.7mb - 81f
1:20pm  -   -  11 13 mph 1014.8mb - 81f
1:10pm  -   -  11 16 mph 1015mb - 80f
1:00pm 4ft 7s 11 16 mph 1015.1mb 81f 80f
12:50pm  -   -  13 16 mph 1015.3mb - 80f
12:40pm  -   -  13 16 mph 1015.4mb - 80f
12:30pm  -   -  11 16 mph 1015.5mb - 80f
12:20pm  -   -  11 13 mph 1015.6mb - 80f
12:10pm  -   -  13 16 mph 1015.8mb - 80f
12:00pm 3.5ft 7s 13 18 mph 1015.9mb 81f 80f
11:50am  -   -  13 16 mph 1016mb - 80f
11:40am  -   -  13 16 mph 1016mb - 80f
11:30am  -   -  13 16 mph 1016.2mb - 80f
11:20am  -   -  11 13 mph 1016.4mb - 80f
11:10am  -   -  11 13 mph 1016.5mb - 80f
11:00am 3.5ft 7s 11 13 mph 1016.7mb 81f 80f
10:50am  -   -  11 13 mph 1016.7mb - 80f
10:40am  -   -  11 13 mph 1016.7mb - 80f
10:30am  -   -  9 11 mph 1016.6mb - 80f
10:20am  -   -  9 11 mph 1016.6mb - 80f
10:10am  -   -  9 11 mph 1016.6mb - 79f
10:00am 3.5ft 7s 9 11 mph 1016.6mb 81f 79f
9:50am  -   -  9 11 mph 1016.6mb - 80f
9:40am  -   -  9 11 mph 1016.6mb - 79f
9:30am  -   -  9 13 mph 1016.5mb - 79f
9:20am  -   -  9 13 mph 1016.5mb - 79f
9:00am 3.5ft 7s 9 11 mph 1016.4mb 81f 79f
8:30am  -   -  11 13 mph 1016mb - 78f
8:20am  -   -  11 13 mph 1015.8mb - 78f
8:10am  -   -  9 11 mph 1015.7mb - 78f
8:00am 3.5ft 7s 9 11 mph 1015.6mb 81f 78f
7:50am  -   -  9 11 mph 1015.5mb - 78f
7:40am  -   -  9 13 mph 1015.3mb - 78f
7:30am  -   -  11 13 mph 1015.2mb - 78f